sensor_id;sensor_type;location;lat;lon;timestamp;P1;durP1;ratioP1;P2;durP2;ratioP2
5650;SDS011;40241;52.684;9.758;2023-05-07T00:00:15;6.10;;;5.07;;
5650;SDS011;40241;52.684;9.758;2023-05-07T00:02:42;5.70;;;5.13;;
5650;SDS011;40241;52.684;9.758;2023-05-07T00:05:09;7.47;;;6.13;;
5650;SDS011;40241;52.684;9.758;2023-05-07T00:07:35;6.50;;;5.83;;
5650;SDS011;40241;52.684;9.758;2023-05-07T00:10:00;6.90;;;5.77;;
5650;SDS011;40241;52.684;9.758;2023-05-07T00:12:26;7.60;;;6.03;;
5650;SDS011;40241;52.684;9.758;2023-05-07T00:14:51;7.40;;;6.37;;
5650;SDS011;40241;52.684;9.758;2023-05-07T00:17:16;6.60;;;5.90;;
5650;SDS011;40241;52.684;9.758;2023-05-07T00:19:42;8.27;;;6.00;;
5650;SDS011;40241;52.684;9.758;2023-05-07T00:22:07;7.80;;;6.30;;
5650;SDS011;40241;52.684;9.758;2023-05-07T00:24:33;8.83;;;6.20;;
5650;SDS011;40241;52.684;9.758;2023-05-07T00:26:58;9.27;;;5.93;;
5650;SDS011;40241;52.684;9.758;2023-05-07T00:29:23;8.37;;;6.87;;
5650;SDS011;40241;52.684;9.758;2023-05-07T00:31:49;8.27;;;6.00;;
5650;SDS011;40241;52.684;9.758;2023-05-07T00:34:15;5.97;;;5.37;;
5650;SDS011;40241;52.684;9.758;2023-05-07T00:36:40;10.40;;;6.30;;
5650;SDS011;40241;52.684;9.758;2023-05-07T00:39:06;7.20;;;5.20;;
5650;SDS011;40241;52.684;9.758;2023-05-07T00:41:31;8.00;;;6.47;;
5650;SDS011;40241;52.684;9.758;2023-05-07T00:43:57;8.30;;;5.60;;
5650;SDS011;40241;52.684;9.758;2023-05-07T00:46:22;7.90;;;5.60;;
5650;SDS011;40241;52.684;9.758;2023-05-07T00:48:49;8.60;;;6.50;;
5650;SDS011;40241;52.684;9.758;2023-05-07T00:51:15;9.43;;;7.00;;
5650;SDS011;40241;52.684;9.758;2023-05-07T00:53:42;8.70;;;5.50;;
5650;SDS011;40241;52.684;9.758;2023-05-07T00:56:08;9.23;;;6.23;;
5650;SDS011;40241;52.684;9.758;2023-05-07T00:58:33;7.40;;;5.60;;
5650;SDS011;40241;52.684;9.758;2023-05-07T01:00:59;7.70;;;6.10;;
5650;SDS011;40241;52.684;9.758;2023-05-07T01:03:25;8.80;;;6.33;;
5650;SDS011;40241;52.684;9.758;2023-05-07T01:05:50;10.10;;;6.30;;
5650;SDS011;40241;52.684;9.758;2023-05-07T01:08:18;7.80;;;6.50;;
5650;SDS011;40241;52.684;9.758;2023-05-07T01:10:43;8.17;;;6.47;;
5650;SDS011;40241;52.684;9.758;2023-05-07T01:13:10;7.00;;;5.90;;
5650;SDS011;40241;52.684;9.758;2023-05-07T01:15:37;7.60;;;6.20;;
5650;SDS011;40241;52.684;9.758;2023-05-07T01:18:03;6.57;;;5.87;;
5650;SDS011;40241;52.684;9.758;2023-05-07T01:20:28;8.20;;;6.03;;
5650;SDS011;40241;52.684;9.758;2023-05-07T01:22:54;10.77;;;6.50;;
5650;SDS011;40241;52.684;9.758;2023-05-07T01:25:21;9.73;;;6.90;;
5650;SDS011;40241;52.684;9.758;2023-05-07T01:27:47;8.20;;;6.57;;
5650;SDS011;40241;52.684;9.758;2023-05-07T01:30:12;7.03;;;6.33;;
5650;SDS011;40241;52.684;9.758;2023-05-07T01:35:07;8.00;;;6.03;;
5650;SDS011;40241;52.684;9.758;2023-05-07T01:37:36;8.57;;;6.40;;
5650;SDS011;40241;52.684;9.758;2023-05-07T01:40:02;9.27;;;7.10;;
5650;SDS011;40241;52.684;9.758;2023-05-07T01:42:28;8.87;;;6.57;;
5650;SDS011;40241;52.684;9.758;2023-05-07T01:44:54;9.07;;;7.37;;
5650;SDS011;40241;52.684;9.758;2023-05-07T01:47:20;8.43;;;7.00;;
5650;SDS011;40241;52.684;9.758;2023-05-07T01:49:46;7.67;;;6.97;;
5650;SDS011;40241;52.684;9.758;2023-05-07T01:52:11;11.73;;;7.70;;
5650;SDS011;40241;52.684;9.758;2023-05-07T01:54:37;9.40;;;7.00;;
5650;SDS011;40241;52.684;9.758;2023-05-07T01:57:02;10.43;;;7.07;;
5650;SDS011;40241;52.684;9.758;2023-05-07T01:59:27;9.17;;;7.30;;
5650;SDS011;40241;52.684;9.758;2023-05-07T02:01:53;8.87;;;6.67;;
5650;SDS011;40241;52.684;9.758;2023-05-07T02:04:18;9.27;;;7.30;;
5650;SDS011;40241;52.684;9.758;2023-05-07T02:06:43;8.60;;;7.20;;
5650;SDS011;40241;52.684;9.758;2023-05-07T02:09:09;8.00;;;6.50;;
5650;SDS011;40241;52.684;9.758;2023-05-07T02:11:34;8.13;;;6.23;;
5650;SDS011;40241;52.684;9.758;2023-05-07T02:14:00;6.43;;;5.73;;
5650;SDS011;40241;52.684;9.758;2023-05-07T02:16:25;8.67;;;6.70;;
5650;SDS011;40241;52.684;9.758;2023-05-07T02:18:50;9.00;;;6.70;;
5650;SDS011;40241;52.684;9.758;2023-05-07T02:21:16;6.83;;;5.90;;
5650;SDS011;40241;52.684;9.758;2023-05-07T02:23:41;6.77;;;5.93;;
5650;SDS011;40241;52.684;9.758;2023-05-07T02:26:06;7.47;;;6.10;;
5650;SDS011;40241;52.684;9.758;2023-05-07T02:28:32;6.17;;;5.60;;
5650;SDS011;40241;52.684;9.758;2023-05-07T02:30:58;7.43;;;5.87;;
5650;SDS011;40241;52.684;9.758;2023-05-07T02:33:24;7.47;;;5.83;;
5650;SDS011;40241;52.684;9.758;2023-05-07T02:35:50;6.77;;;6.13;;
5650;SDS011;40241;52.684;9.758;2023-05-07T02:38:16;7.53;;;5.73;;
5650;SDS011;40241;52.684;9.758;2023-05-07T02:40:42;6.73;;;5.87;;
5650;SDS011;40241;52.684;9.758;2023-05-07T02:43:07;9.33;;;6.17;;
5650;SDS011;40241;52.684;9.758;2023-05-07T02:45:33;7.33;;;6.00;;
5650;SDS011;40241;52.684;9.758;2023-05-07T02:47:58;6.83;;;6.00;;
5650;SDS011;40241;52.684;9.758;2023-05-07T02:50:24;5.43;;;4.90;;
5650;SDS011;40241;52.684;9.758;2023-05-07T02:52:50;5.20;;;4.67;;
5650;SDS011;40241;52.684;9.758;2023-05-07T02:55:15;7.83;;;5.93;;
5650;SDS011;40241;52.684;9.758;2023-05-07T02:57:41;5.70;;;5.13;;
5650;SDS011;40241;52.684;9.758;2023-05-07T03:00:24;4.83;;;4.33;;
5650;SDS011;40241;52.684;9.758;2023-05-07T03:02:49;5.40;;;4.90;;
5650;SDS011;40241;52.684;9.758;2023-05-07T03:05:15;5.50;;;5.00;;
5650;SDS011;40241;52.684;9.758;2023-05-07T03:07:40;4.97;;;4.57;;
5650;SDS011;40241;52.684;9.758;2023-05-07T03:10:10;5.27;;;4.87;;
5650;SDS011;40241;52.684;9.758;2023-05-07T03:12:35;5.00;;;4.60;;
5650;SDS011;40241;52.684;9.758;2023-05-07T03:15:00;6.70;;;5.27;;
5650;SDS011;40241;52.684;9.758;2023-05-07T03:17:26;6.97;;;4.93;;
5650;SDS011;40241;52.684;9.758;2023-05-07T03:19:51;5.67;;;4.57;;
5650;SDS011;40241;52.684;9.758;2023-05-07T03:22:16;4.70;;;4.30;;
5650;SDS011;40241;52.684;9.758;2023-05-07T03:24:42;5.50;;;4.77;;
5650;SDS011;40241;52.684;9.758;2023-05-07T03:27:07;5.30;;;4.60;;
5650;SDS011;40241;52.684;9.758;2023-05-07T03:29:32;5.47;;;4.70;;
5650;SDS011;40241;52.684;9.758;2023-05-07T03:31:58;5.33;;;4.43;;
5650;SDS011;40241;52.684;9.758;2023-05-07T03:34:23;5.27;;;4.77;;
5650;SDS011;40241;52.684;9.758;2023-05-07T03:36:48;4.90;;;4.40;;
5650;SDS011;40241;52.684;9.758;2023-05-07T03:39:14;7.93;;;5.20;;
5650;SDS011;40241;52.684;9.758;2023-05-07T03:41:39;5.53;;;4.93;;
5650;SDS011;40241;52.684;9.758;2023-05-07T03:44:05;5.30;;;4.20;;
5650;SDS011;40241;52.684;9.758;2023-05-07T03:46:30;4.47;;;4.10;;
5650;SDS011;40241;52.684;9.758;2023-05-07T03:48:57;5.27;;;4.77;;
5650;SDS011;40241;52.684;9.758;2023-05-07T03:51:23;6.90;;;5.03;;
5650;SDS011;40241;52.684;9.758;2023-05-07T03:53:48;5.80;;;4.77;;
5650;SDS011;40241;52.684;9.758;2023-05-07T03:56:13;5.70;;;4.87;;
5650;SDS011;40241;52.684;9.758;2023-05-07T03:58:39;7.67;;;4.90;;
5650;SDS011;40241;52.684;9.758;2023-05-07T04:01:04;4.83;;;4.43;;
5650;SDS011;40241;52.684;9.758;2023-05-07T04:03:29;5.30;;;4.80;;
5650;SDS011;40241;52.684;9.758;2023-05-07T04:05:55;5.20;;;4.70;;
5650;SDS011;40241;52.684;9.758;2023-05-07T04:08:20;5.93;;;4.77;;
5650;SDS011;40241;52.684;9.758;2023-05-07T04:10:45;5.10;;;4.53;;
5650;SDS011;40241;52.684;9.758;2023-05-07T04:13:11;4.27;;;3.97;;
5650;SDS011;40241;52.684;9.758;2023-05-07T04:15:36;8.63;;;4.70;;
5650;SDS011;40241;52.684;9.758;2023-05-07T04:18:01;5.07;;;4.33;;
5650;SDS011;40241;52.684;9.758;2023-05-07T04:20:27;5.03;;;4.57;;
5650;SDS011;40241;52.684;9.758;2023-05-07T04:22:52;5.03;;;4.63;;
5650;SDS011;40241;52.684;9.758;2023-05-07T04:25:17;4.53;;;4.13;;
5650;SDS011;40241;52.684;9.758;2023-05-07T04:27:43;4.50;;;4.20;;
5650;SDS011;40241;52.684;9.758;2023-05-07T04:30:08;4.30;;;3.90;;
5650;SDS011;40241;52.684;9.758;2023-05-07T04:32:34;3.97;;;3.67;;
5650;SDS011;40241;52.684;9.758;2023-05-07T04:35:01;6.17;;;4.47;;
5650;SDS011;40241;52.684;9.758;2023-05-07T04:37:26;5.80;;;4.70;;
5650;SDS011;40241;52.684;9.758;2023-05-07T04:39:52;5.20;;;4.70;;
5650;SDS011;40241;52.684;9.758;2023-05-07T04:42:17;4.83;;;4.30;;
5650;SDS011;40241;52.684;9.758;2023-05-07T04:44:44;5.30;;;4.90;;
5650;SDS011;40241;52.684;9.758;2023-05-07T04:47:10;4.60;;;4.20;;
5650;SDS011;40241;52.684;9.758;2023-05-07T04:49:36;4.87;;;4.40;;
5650;SDS011;40241;52.684;9.758;2023-05-07T04:52:03;4.13;;;3.80;;
5650;SDS011;40241;52.684;9.758;2023-05-07T04:54:28;4.57;;;4.17;;
5650;SDS011;40241;52.684;9.758;2023-05-07T04:56:54;4.93;;;4.40;;
5650;SDS011;40241;52.684;9.758;2023-05-07T04:59:20;4.33;;;4.00;;
5650;SDS011;40241;52.684;9.758;2023-05-07T05:01:45;4.60;;;4.13;;
5650;SDS011;40241;52.684;9.758;2023-05-07T05:04:10;4.90;;;4.50;;
5650;SDS011;40241;52.684;9.758;2023-05-07T05:06:36;6.73;;;4.33;;
5650;SDS011;40241;52.684;9.758;2023-05-07T05:09:01;4.70;;;4.30;;
5650;SDS011;40241;52.684;9.758;2023-05-07T05:11:26;6.20;;;4.27;;
5650;SDS011;40241;52.684;9.758;2023-05-07T05:13:52;5.73;;;4.63;;
5650;SDS011;40241;52.684;9.758;2023-05-07T05:16:17;4.80;;;4.40;;
5650;SDS011;40241;52.684;9.758;2023-05-07T05:18:42;4.90;;;4.50;;
5650;SDS011;40241;52.684;9.758;2023-05-07T05:21:08;5.80;;;5.13;;
5650;SDS011;40241;52.684;9.758;2023-05-07T05:23:33;5.03;;;4.67;;
5650;SDS011;40241;52.684;9.758;2023-05-07T05:25:58;4.60;;;4.20;;
5650;SDS011;40241;52.684;9.758;2023-05-07T05:28:24;4.67;;;4.33;;
5650;SDS011;40241;52.684;9.758;2023-05-07T05:30:49;4.67;;;4.27;;
5650;SDS011;40241;52.684;9.758;2023-05-07T05:33:15;4.63;;;4.23;;
5650;SDS011;40241;52.684;9.758;2023-05-07T05:35:41;4.83;;;4.40;;
5650;SDS011;40241;52.684;9.758;2023-05-07T05:38:07;4.90;;;4.50;;
5650;SDS011;40241;52.684;9.758;2023-05-07T05:40:32;4.47;;;4.17;;
5650;SDS011;40241;52.684;9.758;2023-05-07T05:42:58;4.57;;;4.17;;
5650;SDS011;40241;52.684;9.758;2023-05-07T05:45:24;5.10;;;4.57;;
5650;SDS011;40241;52.684;9.758;2023-05-07T05:47:49;5.40;;;4.90;;
5650;SDS011;40241;52.684;9.758;2023-05-07T05:50:15;5.90;;;5.40;;
5650;SDS011;40241;52.684;9.758;2023-05-07T05:52:40;4.53;;;4.13;;
5650;SDS011;40241;52.684;9.758;2023-05-07T05:55:06;5.03;;;4.63;;
5650;SDS011;40241;52.684;9.758;2023-05-07T05:57:31;5.10;;;4.60;;
5650;SDS011;40241;52.684;9.758;2023-05-07T05:59:57;5.37;;;4.90;;
5650;SDS011;40241;52.684;9.758;2023-05-07T06:02:22;4.57;;;4.17;;
5650;SDS011;40241;52.684;9.758;2023-05-07T06:04:48;4.93;;;4.43;;
5650;SDS011;40241;52.684;9.758;2023-05-07T06:07:13;4.23;;;3.93;;
5650;SDS011;40241;52.684;9.758;2023-05-07T06:09:38;5.10;;;4.33;;
5650;SDS011;40241;52.684;9.758;2023-05-07T06:12:04;7.17;;;4.43;;
5650;SDS011;40241;52.684;9.758;2023-05-07T06:14:29;4.37;;;4.07;;
5650;SDS011;40241;52.684;9.758;2023-05-07T06:16:55;4.10;;;3.80;;
5650;SDS011;40241;52.684;9.758;2023-05-07T06:19:20;4.40;;;4.00;;
5650;SDS011;40241;52.684;9.758;2023-05-07T06:21:48;4.73;;;3.43;;
5650;SDS011;40241;52.684;9.758;2023-05-07T06:24:14;3.97;;;3.67;;
5650;SDS011;40241;52.684;9.758;2023-05-07T06:26:39;4.20;;;3.80;;
5650;SDS011;40241;52.684;9.758;2023-05-07T06:29:05;4.20;;;3.80;;
5650;SDS011;40241;52.684;9.758;2023-05-07T06:31:31;4.00;;;3.70;;
5650;SDS011;40241;52.684;9.758;2023-05-07T06:33:57;4.43;;;4.07;;
5650;SDS011;40241;52.684;9.758;2023-05-07T06:36:22;4.53;;;4.13;;
5650;SDS011;40241;52.684;9.758;2023-05-07T06:38:48;4.40;;;4.00;;
5650;SDS011;40241;52.684;9.758;2023-05-07T06:41:13;4.83;;;4.40;;
5650;SDS011;40241;52.684;9.758;2023-05-07T06:43:38;4.80;;;4.40;;
5650;SDS011;40241;52.684;9.758;2023-05-07T06:46:04;4.73;;;4.30;;
5650;SDS011;40241;52.684;9.758;2023-05-07T06:48:30;3.87;;;3.57;;
5650;SDS011;40241;52.684;9.758;2023-05-07T06:50:55;4.30;;;3.90;;
5650;SDS011;40241;52.684;9.758;2023-05-07T06:53:22;4.03;;;3.67;;
5650;SDS011;40241;52.684;9.758;2023-05-07T06:55:48;4.50;;;4.20;;
5650;SDS011;40241;52.684;9.758;2023-05-07T06:58:13;4.33;;;3.93;;
5650;SDS011;40241;52.684;9.758;2023-05-07T07:00:39;6.77;;;4.13;;
5650;SDS011;40241;52.684;9.758;2023-05-07T07:03:05;3.00;;;2.80;;
5650;SDS011;40241;52.684;9.758;2023-05-07T07:05:31;3.60;;;3.30;;
5650;SDS011;40241;52.684;9.758;2023-05-07T07:07:56;4.77;;;4.37;;
5650;SDS011;40241;52.684;9.758;2023-05-07T07:10:21;4.07;;;3.70;;
5650;SDS011;40241;52.684;9.758;2023-05-07T07:12:47;3.80;;;3.50;;
5650;SDS011;40241;52.684;9.758;2023-05-07T07:15:14;4.20;;;3.90;;
5650;SDS011;40241;52.684;9.758;2023-05-07T07:17:40;4.30;;;3.90;;
5650;SDS011;40241;52.684;9.758;2023-05-07T07:20:05;4.23;;;3.83;;
5650;SDS011;40241;52.684;9.758;2023-05-07T07:22:31;9.03;;;3.60;;
5650;SDS011;40241;52.684;9.758;2023-05-07T07:24:57;3.33;;;3.13;;
5650;SDS011;40241;52.684;9.758;2023-05-07T07:27:22;3.90;;;3.60;;
5650;SDS011;40241;52.684;9.758;2023-05-07T07:29:47;3.90;;;3.60;;
5650;SDS011;40241;52.684;9.758;2023-05-07T07:32:13;4.37;;;4.07;;
5650;SDS011;40241;52.684;9.758;2023-05-07T07:34:38;5.33;;;3.97;;
5650;SDS011;40241;52.684;9.758;2023-05-07T07:37:03;3.83;;;3.53;;
5650;SDS011;40241;52.684;9.758;2023-05-07T07:39:31;4.80;;;4.40;;
5650;SDS011;40241;52.684;9.758;2023-05-07T07:41:57;4.27;;;3.97;;
5650;SDS011;40241;52.684;9.758;2023-05-07T07:44:22;4.97;;;4.47;;
5650;SDS011;40241;52.684;9.758;2023-05-07T07:46:48;3.60;;;3.40;;
5650;SDS011;40241;52.684;9.758;2023-05-07T07:49:13;4.20;;;3.87;;
5650;SDS011;40241;52.684;9.758;2023-05-07T07:51:39;4.53;;;4.17;;
5650;SDS011;40241;52.684;9.758;2023-05-07T07:54:05;5.33;;;4.80;;
5650;SDS011;40241;52.684;9.758;2023-05-07T07:56:31;4.87;;;4.47;;
5650;SDS011;40241;52.684;9.758;2023-05-07T07:58:58;5.90;;;4.47;;
5650;SDS011;40241;52.684;9.758;2023-05-07T08:01:23;5.10;;;4.60;;
5650;SDS011;40241;52.684;9.758;2023-05-07T08:03:49;6.23;;;4.97;;
5650;SDS011;40241;52.684;9.758;2023-05-07T08:06:15;4.47;;;4.07;;
5650;SDS011;40241;52.684;9.758;2023-05-07T08:08:40;4.77;;;4.37;;
5650;SDS011;40241;52.684;9.758;2023-05-07T08:11:06;4.67;;;4.27;;
5650;SDS011;40241;52.684;9.758;2023-05-07T08:13:31;5.27;;;4.77;;
5650;SDS011;40241;52.684;9.758;2023-05-07T08:15:56;4.13;;;3.73;;
5650;SDS011;40241;52.684;9.758;2023-05-07T08:18:22;4.90;;;4.40;;
5650;SDS011;40241;52.684;9.758;2023-05-07T08:20:49;4.17;;;3.87;;
5650;SDS011;40241;52.684;9.758;2023-05-07T08:23:15;5.20;;;4.80;;
5650;SDS011;40241;52.684;9.758;2023-05-07T08:25:40;4.83;;;4.37;;
5650;SDS011;40241;52.684;9.758;2023-05-07T08:28:07;4.70;;;4.30;;
5650;SDS011;40241;52.684;9.758;2023-05-07T08:30:32;5.00;;;4.50;;
5650;SDS011;40241;52.684;9.758;2023-05-07T08:32:58;4.70;;;4.30;;
5650;SDS011;40241;52.684;9.758;2023-05-07T08:35:23;5.10;;;4.70;;
5650;SDS011;40241;52.684;9.758;2023-05-07T08:37:50;4.53;;;4.13;;
5650;SDS011;40241;52.684;9.758;2023-05-07T08:40:15;3.90;;;3.60;;
5650;SDS011;40241;52.684;9.758;2023-05-07T08:42:41;4.53;;;4.23;;
5650;SDS011;40241;52.684;9.758;2023-05-07T08:45:09;5.30;;;4.23;;
5650;SDS011;40241;52.684;9.758;2023-05-07T08:47:46;3.97;;;3.67;;
5650;SDS011;40241;52.684;9.758;2023-05-07T08:50:14;4.60;;;4.30;;
5650;SDS011;40241;52.684;9.758;2023-05-07T08:52:41;5.33;;;4.83;;
5650;SDS011;40241;52.684;9.758;2023-05-07T08:55:07;5.03;;;4.63;;
5650;SDS011;40241;52.684;9.758;2023-05-07T08:57:33;5.00;;;4.50;;
5650;SDS011;40241;52.684;9.758;2023-05-07T08:59:58;5.53;;;5.03;;
5650;SDS011;40241;52.684;9.758;2023-05-07T09:02:24;4.83;;;4.47;;
5650;SDS011;40241;52.684;9.758;2023-05-07T09:04:49;5.30;;;4.80;;
5650;SDS011;40241;52.684;9.758;2023-05-07T09:07:15;5.40;;;4.90;;
5650;SDS011;40241;52.684;9.758;2023-05-07T09:09:41;5.20;;;4.80;;
5650;SDS011;40241;52.684;9.758;2023-05-07T09:12:08;5.33;;;4.93;;
5650;SDS011;40241;52.684;9.758;2023-05-07T09:14:34;5.73;;;4.03;;
5650;SDS011;40241;52.684;9.758;2023-05-07T09:17:00;4.53;;;4.13;;
5650;SDS011;40241;52.684;9.758;2023-05-07T09:19:26;4.67;;;4.37;;
5650;SDS011;40241;52.684;9.758;2023-05-07T09:22:01;4.33;;;4.03;;
5650;SDS011;40241;52.684;9.758;2023-05-07T09:24:29;4.20;;;3.90;;
5650;SDS011;40241;52.684;9.758;2023-05-07T09:26:59;4.10;;;3.80;;
5650;SDS011;40241;52.684;9.758;2023-05-07T09:29:26;4.30;;;3.90;;
5650;SDS011;40241;52.684;9.758;2023-05-07T09:31:53;4.83;;;4.43;;
5650;SDS011;40241;52.684;9.758;2023-05-07T09:34:19;4.60;;;4.20;;
5650;SDS011;40241;52.684;9.758;2023-05-07T09:36:45;4.37;;;3.97;;
5650;SDS011;40241;52.684;9.758;2023-05-07T09:39:10;4.40;;;4.10;;
5650;SDS011;40241;52.684;9.758;2023-05-07T09:41:42;4.10;;;3.80;;
5650;SDS011;40241;52.684;9.758;2023-05-07T09:44:12;3.70;;;3.40;;
5650;SDS011;40241;52.684;9.758;2023-05-07T09:46:42;3.33;;;3.13;;
5650;SDS011;40241;52.684;9.758;2023-05-07T09:49:09;3.00;;;2.80;;
5650;SDS011;40241;52.684;9.758;2023-05-07T09:51:45;5.57;;;3.77;;
5650;SDS011;40241;52.684;9.758;2023-05-07T09:54:13;4.10;;;3.80;;
5650;SDS011;40241;52.684;9.758;2023-05-07T09:56:39;3.70;;;3.40;;
5650;SDS011;40241;52.684;9.758;2023-05-07T09:59:07;3.80;;;3.50;;
5650;SDS011;40241;52.684;9.758;2023-05-07T10:01:33;3.40;;;3.10;;
5650;SDS011;40241;52.684;9.758;2023-05-07T10:04:01;2.97;;;2.80;;
5650;SDS011;40241;52.684;9.758;2023-05-07T10:06:29;3.60;;;3.30;;
5650;SDS011;40241;52.684;9.758;2023-05-07T10:08:55;4.07;;;3.23;;
5650;SDS011;40241;52.684;9.758;2023-05-07T10:11:21;3.20;;;3.00;;
5650;SDS011;40241;52.684;9.758;2023-05-07T10:13:47;3.43;;;3.17;;
5650;SDS011;40241;52.684;9.758;2023-05-07T10:16:13;2.67;;;2.57;;
5650;SDS011;40241;52.684;9.758;2023-05-07T10:18:40;2.83;;;2.73;;
5650;SDS011;40241;52.684;9.758;2023-05-07T10:23:41;3.00;;;2.80;;
5650;SDS011;40241;52.684;9.758;2023-05-07T10:26:11;2.70;;;2.43;;
5650;SDS011;40241;52.684;9.758;2023-05-07T10:28:38;2.40;;;2.20;;
5650;SDS011;40241;52.684;9.758;2023-05-07T10:31:23;3.00;;;2.73;;
5650;SDS011;40241;52.684;9.758;2023-05-07T10:34:08;3.67;;;2.93;;
5650;SDS011;40241;52.684;9.758;2023-05-07T10:36:36;2.90;;;2.70;;
5650;SDS011;40241;52.684;9.758;2023-05-07T10:39:02;3.03;;;2.83;;
5650;SDS011;40241;52.684;9.758;2023-05-07T10:41:28;3.57;;;3.37;;
5650;SDS011;40241;52.684;9.758;2023-05-07T10:43:53;3.30;;;3.00;;
5650;SDS011;40241;52.684;9.758;2023-05-07T10:46:19;3.63;;;3.33;;
5650;SDS011;40241;52.684;9.758;2023-05-07T10:49:19;3.33;;;3.13;;
5650;SDS011;40241;52.684;9.758;2023-05-07T10:51:37;3.50;;;2.80;;
5650;SDS011;40241;52.684;9.758;2023-05-07T10:56:35;3.57;;;3.37;;
5650;SDS011;40241;52.684;9.758;2023-05-07T11:04:19;2.90;;;2.70;;
5650;SDS011;40241;52.684;9.758;2023-05-07T11:13:00;4.00;;;2.80;;
5650;SDS011;40241;52.684;9.758;2023-05-07T11:15:07;4.00;;;2.73;;
5650;SDS011;40241;52.684;9.758;2023-05-07T11:26:10;2.70;;;2.60;;
5650;SDS011;40241;52.684;9.758;2023-05-07T11:28:36;2.77;;;2.63;;
5650;SDS011;40241;52.684;9.758;2023-05-07T11:31:03;2.80;;;2.60;;
5650;SDS011;40241;52.684;9.758;2023-05-07T11:33:29;2.70;;;2.50;;
5650;SDS011;40241;52.684;9.758;2023-05-07T11:35:56;3.40;;;3.13;;
5650;SDS011;40241;52.684;9.758;2023-05-07T11:38:22;3.00;;;2.80;;
5650;SDS011;40241;52.684;9.758;2023-05-07T11:40:48;2.87;;;2.73;;
5650;SDS011;40241;52.684;9.758;2023-05-07T11:43:14;3.00;;;2.80;;
5650;SDS011;40241;52.684;9.758;2023-05-07T11:45:40;3.00;;;2.80;;
5650;SDS011;40241;52.684;9.758;2023-05-07T11:48:05;3.03;;;2.83;;
5650;SDS011;40241;52.684;9.758;2023-05-07T11:50:30;3.03;;;2.87;;
5650;SDS011;40241;52.684;9.758;2023-05-07T11:52:56;3.47;;;3.27;;
5650;SDS011;40241;52.684;9.758;2023-05-07T11:55:21;3.80;;;3.00;;
5650;SDS011;40241;52.684;9.758;2023-05-07T11:57:49;3.80;;;3.03;;
5650;SDS011;40241;52.684;9.758;2023-05-07T12:00:15;3.30;;;3.10;;
5650;SDS011;40241;52.684;9.758;2023-05-07T12:02:41;3.13;;;2.93;;
5650;SDS011;40241;52.684;9.758;2023-05-07T12:05:07;3.40;;;3.10;;
5650;SDS011;40241;52.684;9.758;2023-05-07T12:07:33;5.37;;;2.87;;
5650;SDS011;40241;52.684;9.758;2023-05-07T12:10:03;3.07;;;2.87;;
5650;SDS011;40241;52.684;9.758;2023-05-07T12:12:30;3.00;;;2.70;;
5650;SDS011;40241;52.684;9.758;2023-05-07T12:14:55;4.00;;;2.77;;
5650;SDS011;40241;52.684;9.758;2023-05-07T12:17:20;2.77;;;2.63;;
5650;SDS011;40241;52.684;9.758;2023-05-07T12:19:46;2.77;;;2.50;;
5650;SDS011;40241;52.684;9.758;2023-05-07T12:22:12;3.17;;;2.90;;
5650;SDS011;40241;52.684;9.758;2023-05-07T12:24:48;2.83;;;2.63;;
5650;SDS011;40241;52.684;9.758;2023-05-07T12:27:15;2.70;;;2.60;;
5650;SDS011;40241;52.684;9.758;2023-05-07T12:29:48;3.10;;;2.90;;
5650;SDS011;40241;52.684;9.758;2023-05-07T12:32:20;2.90;;;2.70;;
5650;SDS011;40241;52.684;9.758;2023-05-07T12:34:46;3.90;;;3.60;;
5650;SDS011;40241;52.684;9.758;2023-05-07T12:37:14;3.57;;;3.37;;
5650;SDS011;40241;52.684;9.758;2023-05-07T12:40:02;3.47;;;3.27;;
5650;SDS011;40241;52.684;9.758;2023-05-07T12:42:39;3.37;;;3.20;;
5650;SDS011;40241;52.684;9.758;2023-05-07T12:45:26;3.60;;;3.30;;
5650;SDS011;40241;52.684;9.758;2023-05-07T12:47:50;3.60;;;3.37;;
5650;SDS011;40241;52.684;9.758;2023-05-07T12:50:16;3.20;;;3.00;;
5650;SDS011;40241;52.684;9.758;2023-05-07T12:52:42;4.30;;;3.67;;
5650;SDS011;40241;52.684;9.758;2023-05-07T12:55:09;3.50;;;3.10;;
5650;SDS011;40241;52.684;9.758;2023-05-07T12:57:39;3.47;;;3.27;;
5650;SDS011;40241;52.684;9.758;2023-05-07T13:00:06;3.20;;;2.90;;
5650;SDS011;40241;52.684;9.758;2023-05-07T13:02:32;3.67;;;3.43;;
5650;SDS011;40241;52.684;9.758;2023-05-07T13:04:59;4.13;;;3.67;;
5650;SDS011;40241;52.684;9.758;2023-05-07T13:07:25;3.50;;;3.30;;
5650;SDS011;40241;52.684;9.758;2023-05-07T13:09:50;3.53;;;3.23;;
5650;SDS011;40241;52.684;9.758;2023-05-07T13:12:15;3.63;;;3.43;;
5650;SDS011;40241;52.684;9.758;2023-05-07T13:14:41;3.53;;;3.27;;
5650;SDS011;40241;52.684;9.758;2023-05-07T13:17:06;3.57;;;3.27;;
5650;SDS011;40241;52.684;9.758;2023-05-07T13:19:31;3.43;;;3.23;;
5650;SDS011;40241;52.684;9.758;2023-05-07T13:21:57;3.03;;;2.57;;
5650;SDS011;40241;52.684;9.758;2023-05-07T13:24:22;3.60;;;3.30;;
5650;SDS011;40241;52.684;9.758;2023-05-07T13:26:47;4.00;;;3.60;;
5650;SDS011;40241;52.684;9.758;2023-05-07T13:29:13;3.10;;;2.50;;
5650;SDS011;40241;52.684;9.758;2023-05-07T13:31:38;3.07;;;2.87;;
5650;SDS011;40241;52.684;9.758;2023-05-07T13:34:07;4.60;;;3.80;;
5650;SDS011;40241;52.684;9.758;2023-05-07T13:36:33;4.27;;;3.37;;
5650;SDS011;40241;52.684;9.758;2023-05-07T13:39:02;3.30;;;3.10;;
5650;SDS011;40241;52.684;9.758;2023-05-07T13:41:28;3.97;;;3.57;;
5650;SDS011;40241;52.684;9.758;2023-05-07T13:43:53;3.93;;;3.63;;
5650;SDS011;40241;52.684;9.758;2023-05-07T13:46:19;3.17;;;2.97;;
5650;SDS011;40241;52.684;9.758;2023-05-07T13:48:44;3.40;;;3.20;;
5650;SDS011;40241;52.684;9.758;2023-05-07T13:51:09;2.83;;;2.63;;
5650;SDS011;40241;52.684;9.758;2023-05-07T13:53:35;3.33;;;3.13;;
5650;SDS011;40241;52.684;9.758;2023-05-07T13:56:01;3.10;;;2.80;;
5650;SDS011;40241;52.684;9.758;2023-05-07T13:58:26;3.67;;;3.30;;
5650;SDS011;40241;52.684;9.758;2023-05-07T14:00:52;2.53;;;2.43;;
5650;SDS011;40241;52.684;9.758;2023-05-07T14:03:17;2.10;;;2.00;;
5650;SDS011;40241;52.684;9.758;2023-05-07T14:05:44;2.77;;;2.63;;
5650;SDS011;40241;52.684;9.758;2023-05-07T14:08:09;2.73;;;2.53;;
5650;SDS011;40241;52.684;9.758;2023-05-07T14:10:35;2.90;;;2.70;;
5650;SDS011;40241;52.684;9.758;2023-05-07T14:13:01;2.23;;;2.13;;
5650;SDS011;40241;52.684;9.758;2023-05-07T14:15:26;5.97;;;2.83;;
5650;SDS011;40241;52.684;9.758;2023-05-07T14:17:52;4.60;;;3.27;;
5650;SDS011;40241;52.684;9.758;2023-05-07T14:20:17;2.60;;;2.50;;
5650;SDS011;40241;52.684;9.758;2023-05-07T14:22:42;3.07;;;2.77;;
5650;SDS011;40241;52.684;9.758;2023-05-07T14:25:08;2.80;;;2.60;;
5650;SDS011;40241;52.684;9.758;2023-05-07T14:27:34;2.70;;;2.50;;
5650;SDS011;40241;52.684;9.758;2023-05-07T14:30:00;2.90;;;2.60;;
5650;SDS011;40241;52.684;9.758;2023-05-07T14:32:25;2.67;;;2.57;;
5650;SDS011;40241;52.684;9.758;2023-05-07T14:34:50;3.33;;;3.03;;
5650;SDS011;40241;52.684;9.758;2023-05-07T14:37:16;3.53;;;3.30;;
5650;SDS011;40241;52.684;9.758;2023-05-07T14:39:41;2.93;;;2.73;;
5650;SDS011;40241;52.684;9.758;2023-05-07T14:42:07;3.10;;;2.90;;
5650;SDS011;40241;52.684;9.758;2023-05-07T14:44:33;2.77;;;2.57;;
5650;SDS011;40241;52.684;9.758;2023-05-07T14:46:59;3.23;;;3.03;;
5650;SDS011;40241;52.684;9.758;2023-05-07T14:49:25;2.73;;;2.57;;
5650;SDS011;40241;52.684;9.758;2023-05-07T14:51:50;3.30;;;3.10;;
5650;SDS011;40241;52.684;9.758;2023-05-07T14:54:15;2.60;;;2.40;;
5650;SDS011;40241;52.684;9.758;2023-05-07T14:56:41;3.40;;;3.20;;
5650;SDS011;40241;52.684;9.758;2023-05-07T14:59:07;4.17;;;2.73;;
5650;SDS011;40241;52.684;9.758;2023-05-07T15:01:36;2.80;;;2.60;;
5650;SDS011;40241;52.684;9.758;2023-05-07T15:04:02;6.07;;;2.63;;
5650;SDS011;40241;52.684;9.758;2023-05-07T15:06:29;2.47;;;2.30;;
5650;SDS011;40241;52.684;9.758;2023-05-07T15:08:54;2.17;;;2.07;;
5650;SDS011;40241;52.684;9.758;2023-05-07T15:11:20;2.63;;;2.47;;
5650;SDS011;40241;52.684;9.758;2023-05-07T15:13:45;2.70;;;2.50;;
5650;SDS011;40241;52.684;9.758;2023-05-07T15:16:10;2.57;;;2.40;;
5650;SDS011;40241;52.684;9.758;2023-05-07T15:18:36;2.30;;;2.10;;
5650;SDS011;40241;52.684;9.758;2023-05-07T15:21:01;2.47;;;2.37;;